Time;durP1;ratioP1;P1;durP2;ratioP2;P2;SDS_P1;SDS_P2;PMS_P1;PMS_P2;Temp;Humidity;BMP_temperature;BMP_pressure;BME280_temperature;BME280_humidity;BME280_pressure;Samples;Min_cycle;Max_cycle;Signal;HPM_P1;HPM_P2
2023/03/29 00:04:32;;;;;;;;;;;6.40;99.90;;;;;;20826445;28;20460;-80
2023/03/29 00:14:33;;;;;;;6.30;3.00;;;6.50;99.90;;;;;;20827596;28;20344;-80
2023/03/29 00:24:34;;;;;;;3.90;2.63;;;6.50;99.90;;;;;;20815745;28;20033;-80
2023/03/29 00:34:35;;;;;;;8.48;2.70;;;6.50;99.90;;;;;;20819263;28;20068;-80
2023/03/29 00:45:00;;;;;;;4.78;2.83;;;6.40;99.90;;;;;;20825069;28;20442;-80
2023/03/29 00:55:09;;;;;;;4.43;2.30;;;6.50;99.90;;;;;;20830376;28;20033;-80
2023/03/29 01:05:18;;;;;;;7.95;2.65;;;6.40;99.90;;;;;;20841035;28;20040;-81
2023/03/29 01:15:24;;;;;;;4.93;2.53;;;6.50;99.90;;;;;;20859043;28;20033;-80
2023/03/29 01:25:28;;;;;;;4.72;2.55;;;6.20;99.90;;;;;;20844033;28;20025;-80
2023/03/29 01:35:40;;;;;;;4.03;2.55;;;6.40;99.90;;;;;;20842310;28;20029;-80
2023/03/29 01:45:49;;;;;;;3.92;2.40;;;6.40;99.90;;;;;;20840025;28;20419;-79
2023/03/29 01:55:54;;;;;;;5.53;2.58;;;6.40;99.90;;;;;;20808128;28;20033;-80
2023/03/29 02:05:57;;;;;;;5.38;2.10;;;6.30;99.90;;;;;;20848105;28;20528;-80
2023/03/29 02:16:11;;;;;;;7.45;2.55;;;6.40;99.90;;;;;;20837155;28;20041;-81
2023/03/29 02:26:13;;;;;;;4.00;2.47;;;6.50;99.90;;;;;;20838363;28;20033;-80
2023/03/29 02:36:49;;;;;;;5.53;2.22;;;6.40;99.90;;;;;;20823507;28;20523;-79
2023/03/29 02:46:54;;;;;;;8.07;2.17;;;6.40;99.90;;;;;;20822222;28;20049;-80
2023/03/29 02:56:58;;;;;;;4.70;2.13;;;6.40;99.90;;;;;;20845678;28;20920;-80
2023/03/29 03:06:59;;;;;;;3.35;2.22;;;6.50;99.90;;;;;;20817208;28;21015;-80
2023/03/29 03:17:00;;;;;;;;;;;6.50;99.90;;;;;;20829859;28;20037;-80
2023/03/29 03:27:01;;;;;;;5.00;2.22;;;6.40;99.90;;;;;;20834828;28;20035;-80
2023/03/29 03:37:01;;;;;;;;;;;6.50;99.90;;;;;;20829972;28;20432;-80
2023/03/29 03:47:05;;;;;;;6.43;2.75;;;6.50;99.90;;;;;;20830140;28;19928;-80
2023/03/29 03:57:08;;;;;;;4.53;2.22;;;6.50;99.90;;;;;;20826216;28;20033;-81
2023/03/29 04:07:17;;;;;;;5.95;2.28;;;6.30;99.90;;;;;;20806183;28;20036;-80
2023/03/29 04:17:18;;;;;;;5.68;3.10;;;6.40;99.90;;;;;;20833603;28;20132;-82
2023/03/29 04:27:39;;;;;;;3.90;1.60;;;6.40;99.90;;;;;;20830314;28;20487;-82
2023/03/29 04:37:50;;;;;;;4.50;2.85;;;6.30;99.90;;;;;;20858123;28;20829;-80
2023/03/29 04:47:52;;;;;;;4.10;2.60;;;6.20;99.90;;;;;;20890149;23;20465;-78
2023/03/29 04:57:54;;;;;;;4.57;2.50;;;6.10;99.90;;;;;;20882367;28;20505;-78
2023/03/29 05:08:09;;;;;;;3.65;2.40;;;6.10;99.90;;;;;;20836204;28;20981;-77
2023/03/29 05:18:32;;;;;;;4.80;2.42;;;5.90;99.90;;;;;;20828273;28;20102;-78
2023/03/29 05:28:34;;;;;;;;;;;6.20;99.90;;;;;;20836213;28;20033;-78
2023/03/29 05:38:37;;;;;;;7.05;2.97;;;6.30;99.90;;;;;;20840088;28;19920;-79
2023/03/29 05:48:38;;;;;;;8.13;4.10;;;6.20;99.90;;;;;;20846341;28;20041;-79
2023/03/29 05:58:40;;;;;;;5.20;3.03;;;6.10;99.90;;;;;;20849442;28;20033;-78
2023/03/29 06:08:42;;;;;;;4.72;2.17;;;6.10;99.90;;;;;;20829955;28;20040;-78
2023/03/29 06:18:50;;;;;;;4.22;2.55;;;6.40;99.90;;;;;;20847110;28;20438;-78
2023/03/29 06:28:51;;;;;;;;;;;6.70;99.90;;;;;;20845910;28;20035;-78
2023/03/29 06:38:52;;;;;;;9.37;4.03;;;6.90;99.90;;;;;;20856843;28;19920;-79
2023/03/29 06:49:16;;;;;;;9.00;3.47;;;7.30;99.90;;;;;;20842739;28;20345;-78
2023/03/29 06:59:29;;;;;;;8.52;2.30;;;7.40;99.90;;;;;;20834133;28;20151;-79
2023/03/29 07:09:42;;;;;;;6.90;2.58;;;7.60;99.90;;;;;;20832025;28;20040;-78
2023/03/29 07:19:52;;;;;;;7.82;3.10;;;7.90;99.90;;;;;;20833938;28;20400;-79
2023/03/29 07:30:22;;;;;;;6.35;2.97;;;8.20;99.90;;;;;;20831417;28;20060;-79
2023/03/29 07:40:24;;;;;;;9.43;3.22;;;8.20;99.90;;;;;;20835495;28;20056;-78
2023/03/29 07:50:31;;;;;;;9.50;2.75;;;8.40;99.90;;;;;;20831515;28;20045;-77
2023/03/29 08:00:34;;;;;;;4.75;2.97;;;8.70;99.90;;;;;;20829481;28;20044;-78
2023/03/29 08:11:00;;;;;;;4.82;2.60;;;8.90;99.90;;;;;;20829749;28;20041;-79
2023/03/29 08:21:10;;;;;;;5.70;3.00;;;9.30;99.90;;;;;;20827880;28;20112;-78
2023/03/29 08:31:11;;;;;;;5.25;2.88;;;10.00;99.90;;;;;;20811026;28;20029;-78
2023/03/29 08:41:34;;;;;;;5.57;2.75;;;10.30;99.90;;;;;;20812513;28;20639;-78
2023/03/29 08:51:41;;;;;;;3.83;2.38;;;10.70;99.90;;;;;;20810360;28;21173;-78
2023/03/29 09:01:43;;;;;;;8.55;2.83;;;10.90;99.90;;;;;;20827301;28;20056;-79
2023/03/29 09:11:56;;;;;;;3.78;2.40;;;10.80;99.90;;;;;;20828878;28;20044;-78
2023/03/29 09:22:14;;;;;;;9.10;3.45;;;10.80;99.90;;;;;;20841647;28;20037;-79
2023/03/29 09:32:41;;;;;;;7.75;3.60;;;10.80;99.90;;;;;;20857976;28;20490;-79
2023/03/29 09:42:43;;;;;;;6.40;2.65;;;11.00;99.90;;;;;;20831596;28;20046;-79
2023/03/29 09:52:45;;;;;;;6.13;2.90;;;11.70;99.90;;;;;;20839171;28;20037;-79
2023/03/29 10:02:57;;;;;;;4.43;2.50;;;12.20;99.90;;;;;;20843612;28;20096;-79
2023/03/29 10:13:17;;;;;;;6.10;2.65;;;12.60;99.90;;;;;;20852386;28;20037;-79
2023/03/29 10:23:18;;;;;;;3.88;2.22;;;12.90;99.90;;;;;;20917130;28;20036;-79
2023/03/29 10:33:22;;;;;;;3.70;2.40;;;13.20;99.90;;;;;;20924472;28;20390;-78
2023/03/29 10:43:49;;;;;;;5.57;2.42;;;13.00;99.90;;;;;;20944322;28;20055;-78
2023/03/29 10:53:50;;;;;;;5.38;2.10;;;13.20;99.90;;;;;;21016347;28;20090;-77
2023/03/29 11:04:17;;;;;;;3.80;1.90;;;14.70;99.90;;;;;;21015845;28;20087;-79
2023/03/29 11:14:31;;;;;;;3.40;1.52;;;16.90;99.90;;;;;;21015355;28;20036;-77
2023/03/29 11:24:46;;;;;;;2.47;1.20;;;17.80;99.90;;;;;;21010234;28;20029;-80
2023/03/29 11:34:50;;;;;;;2.75;0.82;;;19.30;99.90;;;;;;21006109;28;20048;-79
2023/03/29 11:44:53;;;;;;;2.55;0.95;;;19.30;96.70;;;;;;21005284;28;20040;-78
2023/03/29 11:55:15;;;;;;;4.45;1.30;;;18.20;96.00;;;;;;21003349;28;20506;-80
2023/03/29 12:05:24;;;;;;;;;;;18.00;96.80;;;;;;21002343;28;20028;-80
2023/03/29 12:15:35;;;;;;;2.05;0.98;;;18.00;96.80;;;;;;21003080;28;20377;-78
2023/03/29 12:25:42;;;;;;;2.17;0.73;;;17.80;97.20;;;;;;21001636;28;20032;-79
2023/03/29 12:36:08;;;;;;;1.42;0.77;;;19.80;95.80;;;;;;21002817;28;20028;-80
2023/03/29 12:46:33;;;;;;;6.70;2.17;;;20.40;95.60;;;;;;20996322;28;20075;-78
2023/03/29 12:56:53;;;;;;;3.53;1.33;;;19.60;95.80;;;;;;20997674;28;20033;-78
2023/03/29 13:07:02;;;;;;;1.58;0.90;;;19.90;94.00;;;;;;20916704;28;20444;-79
2023/03/29 13:17:06;;;;;;;3.20;0.82;;;19.00;93.40;;;;;;20954942;28;20096;-79
2023/03/29 13:27:16;;;;;;;2.40;1.20;;;18.80;94.30;;;;;;20908596;28;20112;-78
2023/03/29 13:37:28;;;;;;;3.30;1.08;;;19.00;94.60;;;;;;20834688;28;20052;-79
2023/03/29 13:47:31;;;;;;;3.63;1.20;;;18.50;94.90;;;;;;20942799;28;20048;-78
2023/03/29 13:57:50;;;;;;;4.07;0.98;;;17.80;94.40;;;;;;21001626;28;20036;-79
2023/03/29 14:07:53;;;;;;;5.22;1.05;;;17.60;93.70;;;;;;21010265;28;20035;-78
2023/03/29 14:17:57;;;;;;;3.80;1.13;;;17.70;94.20;;;;;;20957004;28;20115;-79
2023/03/29 14:27:57;;;;;;;2.42;0.90;;;17.70;93.70;;;;;;20929340;28;20044;-79
2023/03/29 14:38:00;;;;;;;7.37;1.13;;;18.40;94.10;;;;;;20927475;28;20380;-79
2023/03/29 14:48:01;;;;;;;5.20;1.10;;;18.40;94.00;;;;;;20939117;28;20033;-79
2023/03/29 14:58:03;;;;;;;7.33;2.07;;;17.70;93.50;;;;;;20897429;28;20025;-79
2023/03/29 15:08:07;;;;;;;4.45;1.80;;;17.50;94.00;;;;;;20937283;28;20040;-79
2023/03/29 15:18:13;;;;;;;5.57;1.00;;;17.70;94.50;;;;;;20866950;28;20030;-79
2023/03/29 15:28:29;;;;;;;2.47;0.98;;;17.60;95.20;;;;;;20837367;28;20044;-79
2023/03/29 15:38:31;;;;;;;2.83;1.08;;;17.60;95.70;;;;;;20837066;28;20029;-78
2023/03/29 15:48:32;;;;;;;4.40;1.27;;;17.30;95.60;;;;;;20969119;28;20123;-78
2023/03/29 15:58:34;;;;;;;3.42;1.50;;;17.40;96.00;;;;;;21013778;28;20107;-77
2023/03/29 16:08:35;;;;;;;4.63;1.30;;;17.60;97.10;;;;;;21003727;28;20040;-77
2023/03/29 16:18:36;;;;;;;12.07;2.63;;;17.40;98.40;;;;;;20940969;28;20039;-78
2023/03/29 16:28:37;;;;;;;4.35;1.40;;;17.20;98.80;;;;;;20918758;28;20033;-80
2023/03/29 16:38:38;;;;;;;2.50;1.30;;;16.80;99.90;;;;;;20912759;28;20457;-79
2023/03/29 16:48:38;;;;;;;3.03;1.23;;;16.40;99.90;;;;;;20976964;28;20131;-78
2023/03/29 16:58:40;;;;;;;10.30;1.87;;;16.10;99.90;;;;;;20996694;28;20107;-78
2023/03/29 17:08:41;;;;;;;6.25;2.58;;;15.60;99.90;;;;;;20996468;28;20021;-79
2023/03/29 17:18:42;;;;;;;6.05;2.42;;;15.30;99.90;;;;;;20999080;28;20115;-78
2023/03/29 17:28:43;;;;;;;10.13;4.13;;;15.30;99.90;;;;;;20998387;28;20040;-81
2023/03/29 17:38:47;;;;;;;9.03;3.07;;;15.10;99.90;;;;;;21004010;28;20102;-77
2023/03/29 17:48:51;;;;;;;7.80;2.63;;;14.90;99.90;;;;;;21008013;28;20394;-80
2023/03/29 17:58:52;;;;;;;11.68;2.75;;;14.30;99.90;;;;;;21009927;28;20028;-80
2023/03/29 18:08:53;;;;;;;6.07;3.00;;;14.20;99.90;;;;;;20990648;28;20075;-82
2023/03/29 18:18:54;;;;;;;7.65;1.90;;;13.60;99.90;;;;;;20942382;28;20064;-80
2023/03/29 18:28:55;;;;;;;9.30;1.97;;;13.40;99.90;;;;;;20904487;28;20037;-80
2023/03/29 18:39:04;;;;;;;11.00;3.10;;;13.10;99.90;;;;;;20903441;28;20129;-82
2023/03/29 18:49:06;;;;;;;8.15;2.88;;;13.40;99.90;;;;;;20969712;28;20079;-82
2023/03/29 18:59:07;;;;;;;10.35;2.05;;;13.10;99.90;;;;;;20937832;28;20022;-80
2023/03/29 19:09:08;;;;;;;12.10;1.90;;;12.60;99.90;;;;;;20873210;28;20034;-79
2023/03/29 19:19:09;;;;;;;4.95;1.60;;;12.50;99.90;;;;;;20877416;28;20028;-83
2023/03/29 19:29:10;;;;;;;4.60;1.90;;;12.50;99.90;;;;;;20833313;28;20041;-79
2023/03/29 19:39:11;;;;;;;6.50;2.07;;;12.60;99.90;;;;;;20838337;28;20025;-80
2023/03/29 19:49:12;;;;;;;11.13;2.13;;;12.40;99.90;;;;;;20928912;28;20491;-78
2023/03/29 19:59:16;;;;;;;7.47;1.90;;;12.30;99.90;;;;;;20915699;28;20033;-78
2023/03/29 20:09:17;;;;;;;8.38;1.80;;;12.10;99.90;;;;;;20915849;28;20029;-77
2023/03/29 20:19:23;;;;;;;7.43;2.07;;;11.80;99.90;;;;;;20988215;28;20598;-79
2023/03/29 20:29:24;;;;;;;10.63;3.10;;;12.10;99.90;;;;;;20985167;28;20043;-78
2023/03/29 20:39:27;;;;;;;7.90;2.53;;;12.10;99.90;;;;;;21004604;28;20071;-79
2023/03/29 20:49:35;;;;;;;8.25;2.28;;;11.50;99.90;;;;;;21009617;28;20033;-78
2023/03/29 20:59:40;;;;;;;10.25;2.30;;;11.60;99.90;;;;;;21011854;28;20453;-79
2023/03/29 21:09:41;;;;;;;5.10;2.00;;;12.00;99.90;;;;;;21026664;28;20519;-77
2023/03/29 21:19:41;;;;;;;9.17;2.10;;;12.20;99.90;;;;;;20953460;28;20044;-80
2023/03/29 21:29:42;;;;;;;13.20;2.47;;;12.00;99.90;;;;;;20932551;28;20048;-79
2023/03/29 21:39:43;;;;;;;7.40;2.03;;;12.10;99.90;;;;;;20929115;28;20029;-77
2023/03/29 21:49:44;;;;;;;10.90;1.97;;;12.10;99.90;;;;;;20928088;28;20041;-77
2023/03/29 21:59:45;;;;;;;7.90;1.97;;;12.40;99.90;;;;;;20927608;28;20040;-78
2023/03/29 22:09:46;;;;;;;17.87;2.50;;;12.10;99.90;;;;;;20926322;28;20040;-77
2023/03/29 22:19:46;;;;;;;13.10;3.17;;;12.00;99.90;;;;;;21002305;28;20502;-78
2023/03/29 22:29:47;;;;;;;7.37;1.63;;;12.00;99.90;;;;;;21014683;28;20029;-80
2023/03/29 22:39:50;;;;;;;8.77;2.58;;;12.20;99.90;;;;;;21015577;28;20067;-79
2023/03/29 22:49:51;;;;;;;15.40;1.80;;;12.10;99.90;;;;;;21000500;22;20119;-80
2023/03/29 22:59:51;;;;;;;10.93;2.33;;;12.10;99.90;;;;;;20917760;28;20033;-81
2023/03/29 23:09:52;;;;;;;17.40;2.50;;;12.30;99.90;;;;;;20853307;28;20089;-79
2023/03/29 23:19:53;;;;;;;15.23;3.57;;;12.00;99.90;;;;;;20928291;28;20036;-80
2023/03/29 23:29:55;;;;;;;9.53;2.10;;;12.20;99.90;;;;;;20942937;28;20025;-81
2023/03/29 23:39:55;;;;;;;13.27;2.10;;;12.20;99.90;;;;;;20936455;28;20044;-79
2023/03/29 23:49:56;;;;;;;18.30;2.10;;;11.90;99.90;;;;;;20927790;28;20372;-80
2023/03/29 23:59:59;;;;;;;10.43;2.00;;;11.90;99.90;;;;;;20925500;28;20037;-80
